createdAt,value
2023-04-16T00:00:48.421Z,6.91
2023-04-16T00:05:55.701Z,6.85
2023-04-16T00:11:02.344Z,6.77
2023-04-16T00:16:04.284Z,6.72
2023-04-16T00:21:11.300Z,6.64
2023-04-16T00:26:13.010Z,6.60
2023-04-16T00:31:26.899Z,6.58
2023-04-16T00:36:29.020Z,6.63
2023-04-16T00:41:30.939Z,6.61
2023-04-16T00:46:38.334Z,6.57
2023-04-16T00:51:42.448Z,6.57
2023-04-16T00:56:49.806Z,6.58
2023-04-16T01:01:51.704Z,6.54
2023-04-16T01:07:01.014Z,6.60
2023-04-16T01:12:05.295Z,6.64
2023-04-16T01:17:07.005Z,6.65
2023-04-16T01:22:08.714Z,6.61
2023-04-16T01:27:10.540Z,6.62
2023-04-16T01:32:12.321Z,6.69
2023-04-16T01:37:17.720Z,6.67
2023-04-16T01:42:21.068Z,6.56
2023-04-16T01:47:27.780Z,6.53
2023-04-16T01:52:29.675Z,6.48
2023-04-16T01:57:31.842Z,6.56
2023-04-16T02:02:36.373Z,6.68
2023-04-16T02:07:40.692Z,6.85
2023-04-16T02:12:44.752Z,6.96
2023-04-16T02:17:56.930Z,7.12
2023-04-16T02:23:00.454Z,7.16
2023-04-16T02:28:05.277Z,7.24
2023-04-16T02:33:14.460Z,7.31
2023-04-16T02:38:28.414Z,7.36
2023-04-16T02:43:30.243Z,7.41
2023-04-16T02:48:36.711Z,7.48
2023-04-16T02:53:40.584Z,7.52
2023-04-16T02:58:42.382Z,7.54
2023-04-16T03:03:46.449Z,7.55
2023-04-16T03:08:48.319Z,7.55
2023-04-16T03:13:52.490Z,7.57
2023-04-16T03:18:56.708Z,7.58
2023-04-16T03:23:58.401Z,7.57
2023-04-16T03:29:00.167Z,7.61
2023-04-16T03:34:06.186Z,7.66
2023-04-16T03:39:08.607Z,7.67
2023-04-16T03:44:13.944Z,7.66
2023-04-16T03:49:21.087Z,7.64
2023-04-16T03:54:25.472Z,7.63
2023-04-16T03:59:36.009Z,7.62
2023-04-16T04:04:40.251Z,7.60
2023-04-16T04:09:51.240Z,7.56
2023-04-16T04:14:53.001Z,7.53
2023-04-16T04:20:01.660Z,7.51
2023-04-16T04:25:12.135Z,7.43
2023-04-16T04:30:13.908Z,7.35
2023-04-16T04:35:16.636Z,7.35
2023-04-16T04:40:21.052Z,7.42
2023-04-16T04:45:30.371Z,7.30
2023-04-16T04:50:36.790Z,7.20
2023-04-16T04:55:41.030Z,7.26
2023-04-16T05:00:48.614Z,7.35
2023-04-16T05:05:50.490Z,7.43
2023-04-16T05:10:57.208Z,7.47
2023-04-16T05:15:58.892Z,7.48
2023-04-16T05:21:03.817Z,7.56
2023-04-16T05:26:08.115Z,7.68
2023-04-16T05:31:14.274Z,7.79
2023-04-16T05:36:16.148Z,7.89
2023-04-16T05:41:20.398Z,7.99
2023-04-16T05:46:22.269Z,8.11
2023-04-16T05:51:27.638Z,8.24
2023-04-16T05:56:29.334Z,8.37
2023-04-16T06:01:32.795Z,8.49
2023-04-16T06:06:37.456Z,8.61
2023-04-16T06:11:39.293Z,8.73
2023-04-16T06:16:41.057Z,8.82
2023-04-16T06:21:47.648Z,8.93
2023-04-16T06:26:49.336Z,9.02
2023-04-16T06:31:51.234Z,9.16
2023-04-16T06:36:52.996Z,9.27
2023-04-16T06:41:57.478Z,9.39
2023-04-16T06:46:59.214Z,9.43
2023-04-16T06:52:00.992Z,9.54
2023-04-16T06:57:02.829Z,9.70
2023-04-16T07:02:11.100Z,9.85
2023-04-16T07:07:12.953Z,9.99
2023-04-16T07:12:14.683Z,10.10
2023-04-16T07:17:16.738Z,10.21
2023-04-16T07:22:20.907Z,10.33
2023-04-16T07:27:27.175Z,10.43
2023-04-16T07:32:31.187Z,10.55
2023-04-16T07:37:32.910Z,10.65
2023-04-16T07:42:37.812Z,10.80
2023-04-16T07:47:39.654Z,10.96
2023-04-16T07:52:45.325Z,11.03
2023-04-16T07:57:49.305Z,11.27
2023-04-16T08:02:51.230Z,11.50
2023-04-16T08:07:53.046Z,11.53
2023-04-16T08:12:57.189Z,11.58
2023-04-16T08:18:01.540Z,11.71
2023-04-16T08:23:03.405Z,11.98
2023-04-16T08:28:05.503Z,12.03
2023-04-16T08:33:07.298Z,12.11
2023-04-16T08:38:11.520Z,12.22
2023-04-16T08:43:15.557Z,12.44
2023-04-16T08:48:20.027Z,12.72
2023-04-16T08:53:55.537Z,12.98
2023-04-16T08:59:03.110Z,13.10
2023-04-16T09:04:05.425Z,13.24
2023-04-16T09:09:11.845Z,13.28
2023-04-16T09:14:13.902Z,13.47
2023-04-16T09:19:20.471Z,13.67
2023-04-16T09:24:22.251Z,13.83
2023-04-16T09:29:37.775Z,14.02
2023-04-16T09:34:59.437Z,14.26
2023-04-16T09:40:05.445Z,14.43
2023-04-16T09:45:07.567Z,14.61
2023-04-16T09:50:18.623Z,14.73
2023-04-16T09:55:23.985Z,14.75
2023-04-16T10:00:34.449Z,14.88
2023-04-16T10:05:38.427Z,15.10
2023-04-16T10:10:42.677Z,15.36
2023-04-16T10:15:48.135Z,15.49
2023-04-16T10:20:51.086Z,15.73
2023-04-16T10:25:57.765Z,16.01
2023-04-16T10:30:59.974Z,16.19
2023-04-16T10:36:18.575Z,16.30
2023-04-16T10:41:21.148Z,16.53
2023-04-16T10:46:26.931Z,16.48
2023-04-16T10:51:37.301Z,16.18
2023-04-16T10:56:44.507Z,16.25
2023-04-16T11:01:54.273Z,16.57
2023-04-16T11:07:18.410Z,16.64
2023-04-16T11:12:34.720Z,16.69
2023-04-16T11:17:43.977Z,16.84
2023-04-16T11:22:54.677Z,16.89
2023-04-16T11:27:59.177Z,17.01
2023-04-16T11:33:11.303Z,17.07
2023-04-16T11:38:13.037Z,16.95
2023-04-16T11:43:19.196Z,17.01
2023-04-16T11:48:23.135Z,17.08
2023-04-16T11:53:24.969Z,17.02
2023-04-16T11:58:28.974Z,17.45
2023-04-16T12:03:48.818Z,17.66
2023-04-16T12:08:53.088Z,17.75
2023-04-16T12:14:13.183Z,18.46
2023-04-16T12:19:17.884Z,18.94
2023-04-16T12:24:27.545Z,19.22
2023-04-16T12:29:29.290Z,18.95
2023-04-16T12:34:48.933Z,19.37
2023-04-16T12:39:56.091Z,20.71
2023-04-16T12:44:57.864Z,21.29
2023-04-16T12:49:59.695Z,21.02
2023-04-16T12:55:02.564Z,21.35
2023-04-16T13:00:08.138Z,21.55
2023-04-16T13:05:17.252Z,21.23
2023-04-16T13:10:22.100Z,21.35
2023-04-16T13:15:28.900Z,20.93
2023-04-16T13:20:30.673Z,21.01
2023-04-16T13:25:34.495Z,20.82
2023-04-16T13:30:36.358Z,20.76
2023-04-16T13:35:38.121Z,20.25
2023-04-16T13:40:39.900Z,20.65
2023-04-16T13:45:41.710Z,20.42
2023-04-16T13:50:52.069Z,20.11
2023-04-16T13:56:07.140Z,19.73
2023-04-16T14:01:11.556Z,19.72
2023-04-16T14:06:18.016Z,19.47
2023-04-16T14:11:24.698Z,20.36
2023-04-16T14:16:27.486Z,20.86
2023-04-16T14:21:30.061Z,19.91
2023-04-16T14:26:31.883Z,20.36
2023-04-16T14:31:36.792Z,21.27
2023-04-16T14:36:38.568Z,24.05
2023-04-16T14:41:40.495Z,24.36
2023-04-16T14:46:42.600Z,26.56
2023-04-16T14:51:45.493Z,28.38
2023-04-16T14:56:50.384Z,29.55
2023-04-16T15:01:55.122Z,27.74
2023-04-16T15:06:59.084Z,25.61
2023-04-16T15:12:03.074Z,24.53
2023-04-16T15:17:04.882Z,23.37
2023-04-16T15:22:09.539Z,22.34
2023-04-16T15:27:14.715Z,21.33
2023-04-16T15:32:16.606Z,21.29
2023-04-16T15:37:18.542Z,22.70
2023-04-16T15:42:20.309Z,23.23
2023-04-16T15:47:22.093Z,22.31
2023-04-16T15:52:23.868Z,21.53
2023-04-16T15:57:25.649Z,20.71
2023-04-16T16:02:29.816Z,20.09
2023-04-16T16:07:34.286Z,19.12
2023-04-16T16:12:36.428Z,18.33
2023-04-16T16:17:40.898Z,18.12
2023-04-16T16:22:46.660Z,17.47
2023-04-16T16:27:48.390Z,17.05
2023-04-16T16:32:50.875Z,16.86
2023-04-16T16:37:57.285Z,16.63
2023-04-16T16:43:01.838Z,15.87
2023-04-16T16:48:07.160Z,15.21
2023-04-16T16:53:11.316Z,14.87
2023-04-16T16:58:13.295Z,14.45
2023-04-16T17:03:15.268Z,14.29
2023-04-16T17:08:17.139Z,14.13
2023-04-16T17:13:20.643Z,13.97
2023-04-16T17:18:22.372Z,13.76
2023-04-16T17:23:24.226Z,13.57
2023-04-16T17:28:28.242Z,13.71
2023-04-16T17:33:40.111Z,14.05
2023-04-16T17:38:46.218Z,13.62
2023-04-16T17:43:49.677Z,13.31
2023-04-16T17:48:53.694Z,13.09
2023-04-16T17:53:55.423Z,13.00
2023-04-16T17:58:59.332Z,12.72
2023-04-16T18:04:01.129Z,12.65
2023-04-16T18:09:05.754Z,12.45
2023-04-16T18:14:09.927Z,12.55
2023-04-16T18:19:14.046Z,12.15
2023-04-16T18:24:18.046Z,12.06
2023-04-16T18:29:24.265Z,12.01
2023-04-16T18:34:32.265Z,11.88
2023-04-16T18:39:34.086Z,11.69
2023-04-16T18:44:36.239Z,11.73
2023-04-16T18:49:37.975Z,11.78
2023-04-16T18:54:40.935Z,11.82
2023-04-16T18:59:44.972Z,11.83
2023-04-16T19:04:46.706Z,11.83
2023-04-16T19:09:48.464Z,11.74
2023-04-16T19:14:52.700Z,11.73
2023-04-16T19:19:59.164Z,11.64
2023-04-16T19:25:00.912Z,11.63
2023-04-16T19:30:03.571Z,11.63
2023-04-16T19:35:08.186Z,11.52
2023-04-16T19:40:10.267Z,11.43
2023-04-16T19:45:17.658Z,11.33
2023-04-16T19:50:20.132Z,11.27
2023-04-16T19:55:24.062Z,11.22
2023-04-16T20:00:30.815Z,11.65
2023-04-16T20:05:32.839Z,11.43
2023-04-16T20:10:37.344Z,11.33
2023-04-16T20:15:43.541Z,11.20
2023-04-16T20:20:45.294Z,11.11
2023-04-16T20:25:47.242Z,11.02
2023-04-16T20:30:51.353Z,10.93
2023-04-16T20:35:57.597Z,10.92
2023-04-16T20:41:11.020Z,10.92
2023-04-16T20:46:15.768Z,10.92
2023-04-16T20:51:17.782Z,10.89
2023-04-16T20:56:21.990Z,10.85
2023-04-16T21:01:26.334Z,10.81
2023-04-16T21:06:33.079Z,10.78
2023-04-16T21:11:37.085Z,10.77
2023-04-16T21:16:41.576Z,10.74
2023-04-16T21:21:43.453Z,10.70
2023-04-16T21:26:47.276Z,10.63
2023-04-16T21:31:49.089Z,10.59
2023-04-16T21:36:55.474Z,10.48
2023-04-16T21:41:59.545Z,10.48
2023-04-16T21:47:03.568Z,10.37
2023-04-16T21:52:18.117Z,10.33
2023-04-16T21:57:22.090Z,10.37
2023-04-16T22:02:24.206Z,10.38
2023-04-16T22:07:28.959Z,10.40
2023-04-16T22:12:39.827Z,10.36
2023-04-16T22:17:45.546Z,10.36
2023-04-16T22:22:49.692Z,10.30
2023-04-16T22:27:52.578Z,10.23
2023-04-16T22:32:54.362Z,10.22
2023-04-16T22:37:59.061Z,10.18
2023-04-16T22:43:02.797Z,10.09
2023-04-16T22:48:07.068Z,10.00
2023-04-16T22:53:16.074Z,9.92
2023-04-16T22:58:17.895Z,9.90
2023-04-16T23:03:24.543Z,9.90
2023-04-16T23:08:31.066Z,9.88
2023-04-16T23:13:35.646Z,9.80
2023-04-16T23:18:37.304Z,9.78
2023-04-16T23:23:38.974Z,9.78
2023-04-16T23:28:42.877Z,9.85
2023-04-16T23:33:46.879Z,9.80
2023-04-16T23:38:51.068Z,9.78
2023-04-16T23:43:52.901Z,9.81
2023-04-16T23:48:55.431Z,9.80
2023-04-16T23:53:57.262Z,9.79
2023-04-16T23:59:03.735Z,9.81
